sensor_id;sensor_type;location;lat;lon;timestamp;temperature;humidity
3998;DHT22;61314;53.444;9.902;2023-04-05T11:50:24;9.20;99.90
3998;DHT22;61314;53.444;9.902;2023-04-05T11:53:11;9.30;99.90
3998;DHT22;61314;53.444;9.902;2023-04-05T11:55:40;9.30;99.90
3998;DHT22;61314;53.444;9.902;2023-04-05T12:00:44;9.40;99.20
3998;DHT22;61314;53.444;9.902;2023-04-05T12:03:12;9.40;98.90
3998;DHT22;61314;53.444;9.902;2023-04-05T12:05:52;9.40;99.30
3998;DHT22;61314;53.444;9.902;2023-04-05T12:08:20;9.40;99.30
3998;DHT22;61314;53.444;9.902;2023-04-05T12:10:57;9.50;99.40
3998;DHT22;61314;53.444;9.902;2023-04-05T12:13:27;9.50;99.30
3998;DHT22;61314;53.444;9.902;2023-04-05T12:16:03;9.50;97.90
3998;DHT22;61314;53.444;9.902;2023-04-05T12:18:31;9.50;98.10
3998;DHT22;61314;53.444;9.902;2023-04-05T12:21:05;9.40;98.80
3998;DHT22;61314;53.444;9.902;2023-04-05T12:23:35;9.50;98.30
3998;DHT22;61314;53.444;9.902;2023-04-05T12:26:03;9.40;98.10
3998;DHT22;61314;53.444;9.902;2023-04-05T12:28:54;9.40;98.00
3998;DHT22;61314;53.444;9.902;2023-04-05T12:31:42;9.40;98.80
3998;DHT22;61314;53.444;9.902;2023-04-05T12:34:11;9.40;99.20
3998;DHT22;61314;53.444;9.902;2023-04-05T12:36:38;9.40;99.30
3998;DHT22;61314;53.444;9.902;2023-04-05T12:39:09;9.40;99.80
3998;DHT22;61314;53.444;9.902;2023-04-05T12:41:36;9.40;99.90
3998;DHT22;61314;53.444;9.902;2023-04-05T12:44:13;9.40;99.80
3998;DHT22;61314;53.444;9.902;2023-04-05T12:46:42;9.40;98.30
3998;DHT22;61314;53.444;9.902;2023-04-05T12:49:10;9.30;98.20
3998;DHT22;61314;53.444;9.902;2023-04-05T12:51:41;9.40;98.80
3998;DHT22;61314;53.444;9.902;2023-04-05T12:54:12;9.40;98.10
3998;DHT22;61314;53.444;9.902;2023-04-05T12:56:40;9.40;98.10
3998;DHT22;61314;53.444;9.902;2023-04-05T12:59:07;9.30;98.40
3998;DHT22;61314;53.444;9.902;2023-04-05T13:01:34;9.40;99.70
3998;DHT22;61314;53.444;9.902;2023-04-05T13:04:02;9.40;99.90
3998;DHT22;61314;53.444;9.902;2023-04-05T13:06:42;9.40;98.10
3998;DHT22;61314;53.444;9.902;2023-04-05T13:09:09;9.50;99.00
3998;DHT22;61314;53.444;9.902;2023-04-05T13:11:35;9.60;99.30
3998;DHT22;61314;53.444;9.902;2023-04-05T13:14:02;9.60;98.90
3998;DHT22;61314;53.444;9.902;2023-04-05T13:16:28;9.70;99.20
3998;DHT22;61314;53.444;9.902;2023-04-05T13:18:55;9.70;99.80
3998;DHT22;61314;53.444;9.902;2023-04-05T13:21:21;9.70;99.00
3998;DHT22;61314;53.444;9.902;2023-04-05T13:23:48;9.80;98.50
3998;DHT22;61314;53.444;9.902;2023-04-05T13:26:15;9.80;98.20
3998;DHT22;61314;53.444;9.902;2023-04-05T13:28:41;9.80;97.20
3998;DHT22;61314;53.444;9.902;2023-04-05T13:31:08;9.80;97.50
3998;DHT22;61314;53.444;9.902;2023-04-05T13:33:35;9.80;98.30
3998;DHT22;61314;53.444;9.902;2023-04-05T13:36:01;9.90;97.50
3998;DHT22;61314;53.444;9.902;2023-04-05T13:38:28;9.90;97.60
3998;DHT22;61314;53.444;9.902;2023-04-05T13:40:54;9.80;97.40
3998;DHT22;61314;53.444;9.902;2023-04-05T13:43:21;9.80;97.70
3998;DHT22;61314;53.444;9.902;2023-04-05T13:45:48;9.80;97.90
3998;DHT22;61314;53.444;9.902;2023-04-05T13:48:14;9.80;97.90
3998;DHT22;61314;53.444;9.902;2023-04-05T13:50:41;9.80;98.40
3998;DHT22;61314;53.444;9.902;2023-04-05T13:53:08;9.80;98.40
3998;DHT22;61314;53.444;9.902;2023-04-05T13:55:35;9.70;98.40
3998;DHT22;61314;53.444;9.902;2023-04-05T13:58:02;9.70;97.80
3998;DHT22;61314;53.444;9.902;2023-04-05T14:00:28;9.70;98.30
3998;DHT22;61314;53.444;9.902;2023-04-05T14:02:55;9.70;98.50
3998;DHT22;61314;53.444;9.902;2023-04-05T14:05:22;9.70;99.00
3998;DHT22;61314;53.444;9.902;2023-04-05T14:07:48;9.60;98.20
3998;DHT22;61314;53.444;9.902;2023-04-05T14:10:15;9.60;98.30
3998;DHT22;61314;53.444;9.902;2023-04-05T14:12:43;9.60;98.40
3998;DHT22;61314;53.444;9.902;2023-04-05T14:15:10;9.60;98.90
3998;DHT22;61314;53.444;9.902;2023-04-05T14:17:36;9.60;98.50
3998;DHT22;61314;53.444;9.902;2023-04-05T14:20:03;9.60;98.60
3998;DHT22;61314;53.444;9.902;2023-04-05T14:22:30;9.60;99.00
3998;DHT22;61314;53.444;9.902;2023-04-05T14:24:57;9.60;99.50
3998;DHT22;61314;53.444;9.902;2023-04-05T14:27:23;9.60;99.50
3998;DHT22;61314;53.444;9.902;2023-04-05T14:29:53;9.60;99.00
3998;DHT22;61314;53.444;9.902;2023-04-05T14:32:23;9.50;98.70
3998;DHT22;61314;53.444;9.902;2023-04-05T14:34:50;9.50;99.20
3998;DHT22;61314;53.444;9.902;2023-04-05T14:37:17;9.50;99.20
3998;DHT22;61314;53.444;9.902;2023-04-05T14:39:43;9.50;99.30
3998;DHT22;61314;53.444;9.902;2023-04-05T14:42:10;9.50;99.20
3998;DHT22;61314;53.444;9.902;2023-04-05T14:44:36;9.50;99.40
3998;DHT22;61314;53.444;9.902;2023-04-05T14:47:03;9.50;99.40
3998;DHT22;61314;53.444;9.902;2023-04-05T14:49:29;9.50;99.30
3998;DHT22;61314;53.444;9.902;2023-04-05T14:51:56;9.50;99.30
3998;DHT22;61314;53.444;9.902;2023-04-05T14:54:23;9.50;98.80
3998;DHT22;61314;53.444;9.902;2023-04-05T14:56:49;9.50;99.30
3998;DHT22;61314;53.444;9.902;2023-04-05T14:59:16;9.50;98.80
3998;DHT22;61314;53.444;9.902;2023-04-05T15:01:42;9.50;98.50
3998;DHT22;61314;53.444;9.902;2023-04-05T15:04:11;9.50;98.60
3998;DHT22;61314;53.444;9.902;2023-04-05T15:06:37;9.40;99.20
3998;DHT22;61314;53.444;9.902;2023-04-05T15:09:04;9.40;99.20
3998;DHT22;61314;53.444;9.902;2023-04-05T15:11:31;9.40;99.40
3998;DHT22;61314;53.444;9.902;2023-04-05T15:14:00;9.40;98.80
3998;DHT22;61314;53.444;9.902;2023-04-05T15:16:27;9.30;98.90
3998;DHT22;61314;53.444;9.902;2023-04-05T15:18:55;9.30;98.90
3998;DHT22;61314;53.444;9.902;2023-04-05T15:21:24;9.30;98.80
3998;DHT22;61314;53.444;9.902;2023-04-05T15:23:51;9.30;98.70
3998;DHT22;61314;53.444;9.902;2023-04-05T15:26:17;9.30;98.70
3998;DHT22;61314;53.444;9.902;2023-04-05T15:28:44;9.20;99.10
3998;DHT22;61314;53.444;9.902;2023-04-05T15:31:11;9.20;99.10
3998;DHT22;61314;53.444;9.902;2023-04-05T15:33:37;9.20;99.40
3998;DHT22;61314;53.444;9.902;2023-04-05T15:36:05;9.20;99.30
3998;DHT22;61314;53.444;9.902;2023-04-05T15:38:32;9.10;98.70
3998;DHT22;61314;53.444;9.902;2023-04-05T15:40:58;9.10;98.80
3998;DHT22;61314;53.444;9.902;2023-04-05T15:43:25;9.10;99.00
3998;DHT22;61314;53.444;9.902;2023-04-05T15:45:52;9.10;99.20
3998;DHT22;61314;53.444;9.902;2023-04-05T15:48:19;9.10;99.40
3998;DHT22;61314;53.444;9.902;2023-04-05T15:50:45;9.00;99.60
3998;DHT22;61314;53.444;9.902;2023-04-05T15:53:12;9.00;99.70
3998;DHT22;61314;53.444;9.902;2023-04-05T15:55:39;9.00;99.70
3998;DHT22;61314;53.444;9.902;2023-04-05T15:58:05;9.00;99.60
3998;DHT22;61314;53.444;9.902;2023-04-05T16:00:33;9.00;99.90
3998;DHT22;61314;53.444;9.902;2023-04-05T16:02:59;9.00;99.90
3998;DHT22;61314;53.444;9.902;2023-04-05T16:05:26;8.90;99.50
3998;DHT22;61314;53.444;9.902;2023-04-05T16:07:53;8.90;99.90
3998;DHT22;61314;53.444;9.902;2023-04-05T16:10:19;8.90;99.90
3998;DHT22;61314;53.444;9.902;2023-04-05T16:12:46;8.90;99.90
3998;DHT22;61314;53.444;9.902;2023-04-05T16:15:13;8.90;99.90
3998;DHT22;61314;53.444;9.902;2023-04-05T16:17:39;8.90;99.90
3998;DHT22;61314;53.444;9.902;2023-04-05T16:20:06;8.90;99.90
3998;DHT22;61314;53.444;9.902;2023-04-05T16:22:33;8.90;99.90
3998;DHT22;61314;53.444;9.902;2023-04-05T16:25:00;8.90;99.90
3998;DHT22;61314;53.444;9.902;2023-04-05T16:27:26;8.90;99.90
3998;DHT22;61314;53.444;9.902;2023-04-05T16:29:53;8.90;99.90
3998;DHT22;61314;53.444;9.902;2023-04-05T16:32:19;8.90;99.90
3998;DHT22;61314;53.444;9.902;2023-04-05T16:34:46;8.90;99.90
3998;DHT22;61314;53.444;9.902;2023-04-05T16:37:13;8.90;99.90
3998;DHT22;61314;53.444;9.902;2023-04-05T16:39:39;8.90;99.90
3998;DHT22;61314;53.444;9.902;2023-04-05T16:42:06;8.90;99.90
3998;DHT22;61314;53.444;9.902;2023-04-05T16:44:33;8.90;99.90
3998;DHT22;61314;53.444;9.902;2023-04-05T16:46:59;8.90;99.90
3998;DHT22;61314;53.444;9.902;2023-04-05T16:49:26;8.90;99.90
3998;DHT22;61314;53.444;9.902;2023-04-05T16:51:53;8.80;99.90
3998;DHT22;61314;53.444;9.902;2023-04-05T16:54:19;8.80;99.90
3998;DHT22;61314;53.444;9.902;2023-04-05T16:56:46;8.80;99.90
3998;DHT22;61314;53.444;9.902;2023-04-05T16:59:13;8.80;99.90
3998;DHT22;61314;53.444;9.902;2023-04-05T17:01:40;8.80;99.90
3998;DHT22;61314;53.444;9.902;2023-04-05T17:04:06;8.80;99.90
3998;DHT22;61314;53.444;9.902;2023-04-05T17:06:33;8.70;99.90
3998;DHT22;61314;53.444;9.902;2023-04-05T17:08:59;8.70;99.90
3998;DHT22;61314;53.444;9.902;2023-04-05T17:11:26;8.70;99.90
3998;DHT22;61314;53.444;9.902;2023-04-05T17:13:53;8.70;99.90
3998;DHT22;61314;53.444;9.902;2023-04-05T17:16:20;8.70;99.90
3998;DHT22;61314;53.444;9.902;2023-04-05T17:18:47;8.60;99.90
3998;DHT22;61314;53.444;9.902;2023-04-05T17:21:13;8.60;99.90
3998;DHT22;61314;53.444;9.902;2023-04-05T17:23:40;8.60;99.90
3998;DHT22;61314;53.444;9.902;2023-04-05T17:26:07;8.60;99.90
3998;DHT22;61314;53.444;9.902;2023-04-05T17:28:33;8.60;99.90
3998;DHT22;61314;53.444;9.902;2023-04-05T17:31:01;8.50;99.90
3998;DHT22;61314;53.444;9.902;2023-04-05T17:33:29;8.50;99.90
3998;DHT22;61314;53.444;9.902;2023-04-05T17:35:55;8.50;99.90
3998;DHT22;61314;53.444;9.902;2023-04-05T17:38:23;8.50;99.90
3998;DHT22;61314;53.444;9.902;2023-04-05T17:40:50;8.40;99.90
3998;DHT22;61314;53.444;9.902;2023-04-05T17:43:17;8.40;99.90
3998;DHT22;61314;53.444;9.902;2023-04-05T17:45:44;8.40;99.90
3998;DHT22;61314;53.444;9.902;2023-04-05T17:48:10;8.40;99.90
3998;DHT22;61314;53.444;9.902;2023-04-05T17:50:37;8.40;99.90
3998;DHT22;61314;53.444;9.902;2023-04-05T17:53:04;8.40;99.90
3998;DHT22;61314;53.444;9.902;2023-04-05T17:55:33;8.30;99.90
3998;DHT22;61314;53.444;9.902;2023-04-05T17:58:00;8.30;99.90
3998;DHT22;61314;53.444;9.902;2023-04-05T18:00:26;8.30;99.90
3998;DHT22;61314;53.444;9.902;2023-04-05T18:02:53;8.30;99.90
3998;DHT22;61314;53.444;9.902;2023-04-05T18:05:20;8.20;99.90
3998;DHT22;61314;53.444;9.902;2023-04-05T18:07:46;8.30;99.90
3998;DHT22;61314;53.444;9.902;2023-04-05T18:10:13;8.20;99.90
3998;DHT22;61314;53.444;9.902;2023-04-05T18:12:40;8.20;99.90
3998;DHT22;61314;53.444;9.902;2023-04-05T18:15:06;8.20;99.90
3998;DHT22;61314;53.444;9.902;2023-04-05T18:17:33;8.10;99.90
3998;DHT22;61314;53.444;9.902;2023-04-05T18:20:00;8.10;99.90
3998;DHT22;61314;53.444;9.902;2023-04-05T18:22:30;8.10;99.90
3998;DHT22;61314;53.444;9.902;2023-04-05T18:24:57;8.10;99.90
3998;DHT22;61314;53.444;9.902;2023-04-05T18:27:23;8.10;99.90
3998;DHT22;61314;53.444;9.902;2023-04-05T18:29:50;8.00;99.90
3998;DHT22;61314;53.444;9.902;2023-04-05T18:32:16;8.00;99.90
3998;DHT22;61314;53.444;9.902;2023-04-05T18:34:44;8.00;99.90
3998;DHT22;61314;53.444;9.902;2023-04-05T18:37:11;7.90;99.90
3998;DHT22;61314;53.444;9.902;2023-04-05T18:39:37;7.90;99.90
3998;DHT22;61314;53.444;9.902;2023-04-05T18:42:04;7.90;99.90
3998;DHT22;61314;53.444;9.902;2023-04-05T18:44:30;7.90;99.90
3998;DHT22;61314;53.444;9.902;2023-04-05T18:46:57;7.80;99.90
3998;DHT22;61314;53.444;9.902;2023-04-05T18:49:24;7.80;99.90
3998;DHT22;61314;53.444;9.902;2023-04-05T18:51:50;7.80;99.90
3998;DHT22;61314;53.444;9.902;2023-04-05T18:54:17;7.80;99.90
3998;DHT22;61314;53.444;9.902;2023-04-05T18:56:44;7.80;99.90
3998;DHT22;61314;53.444;9.902;2023-04-05T18:59:11;7.80;99.90
3998;DHT22;61314;53.444;9.902;2023-04-05T19:01:38;7.70;99.90
3998;DHT22;61314;53.444;9.902;2023-04-05T19:04:05;7.70;99.90
3998;DHT22;61314;53.444;9.902;2023-04-05T19:06:32;7.60;99.90
3998;DHT22;61314;53.444;9.902;2023-04-05T19:09:00;7.60;99.90
3998;DHT22;61314;53.444;9.902;2023-04-05T19:11:27;7.60;99.90
3998;DHT22;61314;53.444;9.902;2023-04-05T19:13:54;7.60;99.90
3998;DHT22;61314;53.444;9.902;2023-04-05T19:16:20;7.60;99.90
3998;DHT22;61314;53.444;9.902;2023-04-05T19:18:47;7.50;99.90
3998;DHT22;61314;53.444;9.902;2023-04-05T19:21:13;7.50;99.90
3998;DHT22;61314;53.444;9.902;2023-04-05T19:23:40;7.50;99.90
3998;DHT22;61314;53.444;9.902;2023-04-05T19:26:07;7.50;99.90
3998;DHT22;61314;53.444;9.902;2023-04-05T19:28:33;7.50;99.90
3998;DHT22;61314;53.444;9.902;2023-04-05T19:31:00;7.50;99.90
3998;DHT22;61314;53.444;9.902;2023-04-05T19:33:29;7.50;99.90
3998;DHT22;61314;53.444;9.902;2023-04-05T19:35:57;7.50;99.90
3998;DHT22;61314;53.444;9.902;2023-04-05T19:38:24;7.40;99.90
3998;DHT22;61314;53.444;9.902;2023-04-05T19:40:51;7.40;99.90
3998;DHT22;61314;53.444;9.902;2023-04-05T19:43:17;7.40;99.90
